Time;durP1;ratioP1;P1;durP2;ratioP2;P2;SDS_P1;SDS_P2;PMS_P1;PMS_P2;Temp;Humidity;BMP_temperature;BMP_pressure;BME280_temperature;BME280_humidity;BME280_pressure;Samples;Min_cycle;Max_cycle;Signal;HPM_P1;HPM_P2
2023/12/07 00:01:19;;;;;;;29.40;13.80;;;2.20;99.90;;;;;;4933701;29;20194;-66
2023/12/07 00:03:45;;;;;;;27.07;13.53;;;2.10;99.90;;;;;;4935887;29;20187;-63
2023/12/07 00:06:10;;;;;;;27.70;12.07;;;2.20;99.90;;;;;;4935534;29;20271;-65
2023/12/07 00:08:36;;;;;;;31.33;13.63;;;2.20;99.90;;;;;;4934534;29;20270;-65
2023/12/07 00:11:01;;;;;;;26.20;12.37;;;2.20;99.90;;;;;;4934976;29;20230;-65
2023/12/07 00:13:27;;;;;;;25.33;12.13;;;2.20;99.90;;;;;;4935433;29;20197;-65
2023/12/07 00:15:52;;;;;;;25.33;11.40;;;2.10;99.90;;;;;;4935596;29;20190;-65
2023/12/07 00:18:18;;;;;;;27.70;13.37;;;2.00;99.90;;;;;;4935305;29;20195;-65
2023/12/07 00:20:44;;;;;;;25.60;11.27;;;2.00;99.90;;;;;;4934979;29;20297;-66
2023/12/07 00:23:10;;;;;;;25.80;12.00;;;2.00;99.90;;;;;;4935596;29;20359;-66
2023/12/07 00:25:35;;;;;;;27.60;11.77;;;2.00;99.90;;;;;;4935337;29;20202;-66
2023/12/07 00:28:01;;;;;;;25.70;11.87;;;2.00;99.90;;;;;;4918269;29;20243;-65
2023/12/07 00:30:26;;;;;;;23.07;10.93;;;1.90;99.90;;;;;;4933412;29;20714;-64
2023/12/07 00:32:52;;;;;;;23.13;10.93;;;1.90;99.90;;;;;;4935375;29;20183;-65
2023/12/07 00:35:21;;;;;;;23.47;11.60;;;1.90;99.90;;;;;;4935167;29;20191;-65
2023/12/07 00:37:47;;;;;;;25.27;11.20;;;1.90;99.90;;;;;;4933884;29;20175;-66
2023/12/07 00:40:12;;;;;;;24.40;11.97;;;1.90;99.90;;;;;;4934416;29;20583;-65
2023/12/07 00:42:38;;;;;;;24.17;11.60;;;1.90;99.90;;;;;;4935271;29;20644;-66
2023/12/07 00:45:04;;;;;;;24.23;11.97;;;1.90;99.90;;;;;;4935048;29;20187;-65
2023/12/07 00:47:30;;;;;;;23.87;11.07;;;1.90;99.90;;;;;;4935238;29;20720;-64
2023/12/07 00:49:55;;;;;;;25.30;12.13;;;1.90;99.90;;;;;;4934143;28;20310;-65
2023/12/07 00:52:21;;;;;;;26.00;12.37;;;1.80;99.90;;;;;;4934713;29;20215;-64
2023/12/07 00:54:46;;;;;;;32.97;11.57;;;1.80;99.90;;;;;;4934886;29;20187;-66
2023/12/07 00:57:12;;;;;;;23.43;11.33;;;1.80;99.90;;;;;;4934768;29;20194;-64
2023/12/07 00:59:37;;;;;;;25.40;12.13;;;1.80;99.90;;;;;;4934309;29;20214;-64
2023/12/07 01:02:04;;;;;;;31.30;12.60;;;1.80;99.90;;;;;;4934823;29;20187;-64
2023/12/07 01:04:31;;;;;;;33.60;13.50;;;1.80;99.90;;;;;;4934957;29;20211;-66
2023/12/07 01:06:57;;;;;;;33.40;14.00;;;1.70;99.90;;;;;;4934810;29;20181;-66
2023/12/07 01:09:22;;;;;;;32.60;14.33;;;1.60;99.90;;;;;;4934461;29;20656;-65
2023/12/07 01:11:48;;;;;;;30.73;13.73;;;1.50;99.90;;;;;;4934421;29;20187;-66
2023/12/07 01:14:14;;;;;;;35.07;15.03;;;1.40;99.90;;;;;;4934525;29;20186;-65
2023/12/07 01:16:40;;;;;;;29.70;13.13;;;1.40;99.90;;;;;;4934655;29;20183;-66
2023/12/07 01:19:07;;;;;;;31.27;13.87;;;1.40;99.90;;;;;;4934223;29;20211;-66
2023/12/07 01:21:32;;;;;;;28.30;13.17;;;1.50;99.90;;;;;;4932836;29;20182;-66
2023/12/07 01:23:58;;;;;;;32.17;13.73;;;1.50;99.90;;;;;;4934598;29;20184;-66
2023/12/07 01:26:24;;;;;;;31.40;12.50;;;1.60;99.90;;;;;;4934350;29;20279;-66
2023/12/07 01:28:50;;;;;;;30.93;13.03;;;1.50;99.90;;;;;;4934347;29;20190;-65
2023/12/07 01:31:16;;;;;;;30.60;13.77;;;1.50;99.90;;;;;;4933687;29;20195;-65
2023/12/07 01:33:42;;;;;;;27.50;12.60;;;1.50;99.90;;;;;;4933240;29;20179;-66
2023/12/07 01:36:08;;;;;;;26.90;11.53;;;1.50;99.90;;;;;;4948769;29;20209;-65
2023/12/07 01:38:34;;;;;;;26.80;12.50;;;1.40;99.90;;;;;;4934296;29;20191;-65
2023/12/07 01:40:59;;;;;;;27.50;12.63;;;1.40;99.90;;;;;;4933878;29;20249;-65
2023/12/07 01:43:25;;;;;;;30.07;12.57;;;1.50;99.90;;;;;;4934068;29;20198;-65
2023/12/07 01:45:53;;;;;;;30.03;12.23;;;1.60;99.90;;;;;;4934073;29;20310;-66
2023/12/07 01:48:20;;;;;;;29.20;12.60;;;1.60;99.90;;;;;;4932803;29;20552;-66
2023/12/07 01:50:47;;;;;;;27.83;13.10;;;1.70;99.90;;;;;;4933514;29;20624;-65
2023/12/07 01:53:13;;;;;;;22.37;10.83;;;1.60;99.90;;;;;;4933812;29;20197;-65
2023/12/07 01:55:39;;;;;;;27.93;12.60;;;1.60;99.90;;;;;;4934023;29;20175;-66
2023/12/07 01:58:06;;;;;;;26.53;12.23;;;1.70;99.90;;;;;;4933720;29;20568;-65
2023/12/07 02:00:33;;;;;;;26.27;11.70;;;1.70;99.90;;;;;;4933175;29;20625;-66
2023/12/07 02:03:01;;;;;;;27.67;12.43;;;1.60;99.90;;;;;;4933376;29;20541;-65
2023/12/07 02:05:27;;;;;;;25.30;12.33;;;1.60;99.90;;;;;;4933758;29;20271;-66
2023/12/07 02:07:53;;;;;;;26.53;12.90;;;1.50;99.90;;;;;;4933762;29;20258;-65
2023/12/07 02:10:19;;;;;;;27.03;12.47;;;1.50;99.90;;;;;;4932937;29;20207;-65
2023/12/07 02:12:46;;;;;;;31.50;12.57;;;1.50;99.90;;;;;;4933778;29;20277;-64
2023/12/07 02:15:11;;;;;;;31.53;12.93;;;1.50;99.90;;;;;;4933801;29;20258;-66
2023/12/07 02:17:48;;;;;;;35.43;13.83;;;1.50;99.90;;;;;;4933693;29;20278;-65
2023/12/07 02:20:36;;;;;;;30.97;12.67;;;1.60;99.90;;;;;;4932596;29;20575;-65
2023/12/07 02:23:06;;;;;;;29.33;11.97;;;1.50;99.90;;;;;;4933433;29;20175;-66
2023/12/07 02:25:48;;;;;;;29.57;13.90;;;1.40;99.90;;;;;;4933451;29;20183;-65
2023/12/07 02:28:13;;;;;;;29.40;13.07;;;1.40;99.90;;;;;;4933262;29;20186;-65
2023/12/07 02:30:39;;;;;;;25.53;11.33;;;1.30;99.90;;;;;;4932702;29;20215;-64
2023/12/07 02:33:05;;;;;;;23.97;11.50;;;1.40;99.90;;;;;;4933332;29;20187;-66
2023/12/07 02:35:31;;;;;;;24.33;11.27;;;1.40;99.90;;;;;;4925538;29;20931;-66
2023/12/07 02:37:58;;;;;;;25.80;11.93;;;1.40;99.90;;;;;;4933144;29;20195;-66
2023/12/07 02:40:26;;;;;;;24.07;10.63;;;1.50;99.90;;;;;;4932265;29;20225;-63
2023/12/07 02:42:53;;;;;;;24.23;11.90;;;1.40;99.90;;;;;;4932859;29;20235;-64
2023/12/07 02:45:19;;;;;;;30.33;12.80;;;1.40;99.90;;;;;;4932988;29;20179;-66
2023/12/07 02:47:45;;;;;;;31.87;13.73;;;1.50;99.90;;;;;;4933228;29;20209;-67
2023/12/07 02:50:11;;;;;;;27.03;13.00;;;1.50;99.90;;;;;;4932230;29;20200;-66
2023/12/07 02:52:37;;;;;;;30.80;13.80;;;1.50;99.90;;;;;;4933163;29;20234;-66
2023/12/07 02:55:03;;;;;;;33.87;14.17;;;1.50;99.90;;;;;;4932051;29;20195;-66
2023/12/07 02:57:29;;;;;;;32.83;14.40;;;1.40;99.90;;;;;;4932989;29;20274;-66
2023/12/07 02:59:55;;;;;;;32.43;14.77;;;1.20;99.90;;;;;;4932456;29;20214;-65
2023/12/07 03:02:21;;;;;;;32.03;14.17;;;1.20;99.90;;;;;;4932933;29;20183;-65
2023/12/07 03:04:47;;;;;;;29.37;12.80;;;1.20;99.90;;;;;;4932913;29;20245;-66
2023/12/07 03:07:12;;;;;;;29.93;14.63;;;1.30;99.90;;;;;;4931790;29;20179;-66
2023/12/07 03:09:38;;;;;;;30.30;14.00;;;1.30;99.90;;;;;;4932375;29;20202;-65
2023/12/07 03:12:04;;;;;;;32.17;13.67;;;1.40;99.90;;;;;;4932966;29;20601;-66
2023/12/07 03:14:30;;;;;;;27.23;12.73;;;1.40;99.90;;;;;;4935366;29;20588;-67
2023/12/07 03:16:55;;;;;;;27.63;12.80;;;1.40;99.90;;;;;;4936837;29;20277;-66
2023/12/07 03:19:21;;;;;;;27.90;13.63;;;1.40;99.90;;;;;;4935012;29;20215;-66
2023/12/07 03:21:46;;;;;;;26.87;13.07;;;1.40;99.90;;;;;;4935981;29;20202;-65
2023/12/07 03:24:12;;;;;;;30.57;12.93;;;1.40;99.90;;;;;;4936540;29;20552;-65
2023/12/07 03:26:38;;;;;;;28.63;13.47;;;1.40;99.90;;;;;;4936746;29;20180;-66
2023/12/07 03:29:03;;;;;;;34.93;14.97;;;1.50;99.90;;;;;;4936596;29;20744;-65
2023/12/07 03:31:29;;;;;;;28.97;13.40;;;1.40;99.90;;;;;;4935714;29;20207;-65
2023/12/07 03:33:55;;;;;;;32.60;13.83;;;1.50;99.90;;;;;;4936393;29;20189;-65
2023/12/07 03:36:22;;;;;;;29.20;13.53;;;1.50;99.90;;;;;;4936156;29;20243;-66
2023/12/07 03:38:48;;;;;;;31.17;14.23;;;1.60;99.90;;;;;;4936202;29;20185;-65
2023/12/07 03:41:13;;;;;;;29.03;13.23;;;1.60;99.90;;;;;;4935366;29;20215;-65
2023/12/07 03:43:39;;;;;;;29.63;14.47;;;1.60;99.90;;;;;;4936134;29;20741;-66
2023/12/07 03:46:06;;;;;;;31.13;13.80;;;1.60;99.90;;;;;;4936093;29;20230;-64
2023/12/07 03:48:32;;;;;;;29.40;14.73;;;1.50;99.90;;;;;;4928228;29;20226;-65
2023/12/07 03:50:58;;;;;;;32.63;14.80;;;1.60;99.90;;;;;;4935345;29;20211;-65
2023/12/07 03:53:24;;;;;;;31.43;14.60;;;1.70;99.90;;;;;;4936114;29;20269;-66
2023/12/07 03:55:49;;;;;;;32.13;14.67;;;1.70;99.90;;;;;;4936129;29;20200;-65
2023/12/07 03:58:15;;;;;;;43.33;17.83;;;1.70;99.90;;;;;;4935916;29;20671;-65
2023/12/07 04:00:41;;;;;;;29.97;14.10;;;1.70;99.90;;;;;;4935426;29;20218;-66
2023/12/07 04:03:06;;;;;;;31.33;15.20;;;1.70;99.90;;;;;;4935767;29;20188;-62
2023/12/07 04:05:32;;;;;;;36.33;15.60;;;1.70;99.90;;;;;;4935930;29;20551;-65
2023/12/07 04:07:58;;;;;;;40.97;17.33;;;1.70;99.90;;;;;;4935950;29;20186;-65
2023/12/07 04:10:24;;;;;;;36.07;16.70;;;1.70;99.90;;;;;;4935255;29;20211;-66
2023/12/07 04:12:49;;;;;;;38.00;16.73;;;1.70;99.90;;;;;;4935924;29;20186;-64
2023/12/07 04:15:15;;;;;;;37.20;18.43;;;1.60;99.90;;;;;;4935672;28;20195;-64
2023/12/07 04:17:41;;;;;;;41.60;19.50;;;1.60;99.90;;;;;;4935771;29;20323;-66
2023/12/07 04:20:07;;;;;;;35.03;17.50;;;1.60;99.90;;;;;;4934833;29;20309;-64
2023/12/07 04:22:33;;;;;;;32.93;16.90;;;1.50;99.90;;;;;;4935638;29;20186;-66
2023/12/07 04:24:58;;;;;;;35.47;15.77;;;1.50;99.90;;;;;;4935171;29;20187;-66
2023/12/07 04:27:24;;;;;;;35.37;16.83;;;1.50;99.90;;;;;;4935632;29;20179;-65
2023/12/07 04:29:49;;;;;;;35.37;16.27;;;1.50;99.90;;;;;;4934856;29;20210;-66
2023/12/07 04:32:15;;;;;;;34.40;16.97;;;1.40;99.90;;;;;;4934965;29;20191;-66
2023/12/07 04:34:41;;;;;;;41.10;18.23;;;1.50;99.90;;;;;;4935468;29;20179;-65
2023/12/07 04:37:06;;;;;;;35.90;16.20;;;1.40;99.90;;;;;;4934625;29;20273;-65
2023/12/07 04:39:32;;;;;;;38.37;17.40;;;1.40;99.90;;;;;;4933963;29;20251;-65
2023/12/07 04:41:57;;;;;;;39.57;17.80;;;1.40;99.90;;;;;;4934749;29;20704;-65
2023/12/07 04:44:25;;;;;;;38.27;17.43;;;1.40;99.90;;;;;;4935050;29;20191;-64
2023/12/07 04:46:51;;;;;;;34.90;16.27;;;1.40;99.90;;;;;;4934952;29;20265;-63
2023/12/07 04:49:16;;;;;;;33.97;16.17;;;1.40;99.90;;;;;;4934750;29;20642;-64
2023/12/07 04:51:46;;;;;;;32.43;15.07;;;1.40;99.90;;;;;;4934390;29;20202;-64
2023/12/07 04:54:14;;;;;;;28.57;14.50;;;1.40;99.90;;;;;;4934799;29;20176;-66
2023/12/07 04:56:43;;;;;;;33.97;15.40;;;1.50;99.90;;;;;;4935005;29;20191;-65
2023/12/07 04:59:10;;;;;;;30.00;15.43;;;1.50;99.90;;;;;;4934527;29;20203;-65
2023/12/07 05:01:36;;;;;;;32.77;14.70;;;1.50;99.90;;;;;;4934740;29;20254;-65
2023/12/07 05:04:03;;;;;;;31.57;13.83;;;1.50;99.90;;;;;;4934812;29;20183;-65
2023/12/07 05:06:30;;;;;;;30.40;14.40;;;1.50;99.90;;;;;;4934966;29;20188;-66
2023/12/07 05:08:55;;;;;;;32.93;14.50;;;1.60;99.90;;;;;;4934630;29;20195;-65
2023/12/07 05:11:21;;;;;;;38.03;14.77;;;1.50;99.90;;;;;;4933866;29;20183;-64
2023/12/07 05:13:47;;;;;;;29.40;14.27;;;1.50;99.90;;;;;;4934708;29;20191;-65
2023/12/07 05:16:13;;;;;;;28.90;13.10;;;1.60;99.90;;;;;;4934199;29;20187;-65
2023/12/07 05:18:39;;;;;;;32.33;13.90;;;1.50;99.90;;;;;;4934456;29;20191;-65
2023/12/07 05:21:05;;;;;;;27.03;13.50;;;1.50;99.90;;;;;;4933551;29;20210;-65
2023/12/07 05:23:31;;;;;;;28.53;13.23;;;1.50;99.90;;;;;;4934365;29;20175;-64
2023/12/07 05:25:56;;;;;;;26.90;12.93;;;1.50;99.90;;;;;;4934690;29;20195;-64
2023/12/07 05:28:22;;;;;;;27.63;13.70;;;1.50;99.90;;;;;;4934317;29;20214;-64
2023/12/07 05:30:48;;;;;;;28.37;14.17;;;1.40;99.90;;;;;;4934060;29;20203;-65
2023/12/07 05:33:15;;;;;;;30.73;13.90;;;1.40;99.90;;;;;;4934346;29;20183;-65
2023/12/07 05:35:40;;;;;;;34.07;14.50;;;1.40;99.90;;;;;;4933688;29;20773;-65
2023/12/07 05:38:06;;;;;;;28.13;13.23;;;1.30;99.90;;;;;;4933898;29;20270;-64
2023/12/07 05:40:31;;;;;;;31.03;13.97;;;1.30;99.90;;;;;;4933188;29;20210;-66
2023/12/07 05:42:57;;;;;;;35.47;14.20;;;1.30;99.90;;;;;;4934077;29;20190;-63
2023/12/07 05:45:23;;;;;;;30.63;14.03;;;1.30;99.90;;;;;;4934018;29;20215;-66
2023/12/07 05:47:48;;;;;;;31.80;14.33;;;1.20;99.90;;;;;;4934190;29;20707;-66
2023/12/07 05:50:14;;;;;;;31.27;13.70;;;1.30;99.90;;;;;;4933409;29;20213;-65
2023/12/07 05:52:39;;;;;;;30.23;14.43;;;1.30;99.90;;;;;;4932757;29;20668;-65
2023/12/07 05:55:06;;;;;;;30.97;14.93;;;1.30;99.90;;;;;;4934046;29;20297;-65
2023/12/07 05:57:31;;;;;;;30.93;14.50;;;1.30;99.90;;;;;;4932572;29;20606;-64
2023/12/07 05:59:57;;;;;;;29.97;14.13;;;1.30;99.90;;;;;;4933219;29;20221;-65
2023/12/07 06:02:22;;;;;;;32.93;13.57;;;1.30;99.90;;;;;;4934012;29;20708;-65
2023/12/07 06:04:48;;;;;;;30.47;14.13;;;1.30;99.90;;;;;;4933710;29;20187;-65
2023/12/07 06:07:13;;;;;;;27.47;13.83;;;1.40;99.90;;;;;;4933650;29;20218;-66
2023/12/07 06:09:39;;;;;;;30.40;14.10;;;1.30;99.90;;;;;;4933580;29;20238;-65
2023/12/07 06:12:05;;;;;;;30.87;14.73;;;1.40;99.90;;;;;;4933337;29;20194;-64
2023/12/07 06:14:32;;;;;;;31.63;14.17;;;1.30;99.90;;;;;;4933578;29;20213;-65
2023/12/07 06:16:59;;;;;;;32.77;13.97;;;1.30;99.90;;;;;;4933534;29;20186;-65
2023/12/07 06:19:24;;;;;;;34.93;16.77;;;1.40;99.90;;;;;;4933175;29;20723;-64
2023/12/07 06:21:50;;;;;;;32.30;16.33;;;1.40;99.90;;;;;;4931839;29;20187;-64
2023/12/07 06:24:15;;;;;;;35.67;15.20;;;1.40;99.90;;;;;;4933334;29;20191;-65
2023/12/07 06:26:41;;;;;;;31.30;14.87;;;1.30;99.90;;;;;;4933417;29;20183;-63
2023/12/07 06:29:07;;;;;;;33.73;14.97;;;1.30;99.90;;;;;;4933176;29;20214;-63
2023/12/07 06:31:33;;;;;;;32.10;15.43;;;1.30;99.90;;;;;;4932847;29;20210;-63
2023/12/07 06:34:00;;;;;;;32.83;15.57;;;1.30;99.90;;;;;;4933355;29;20187;-64
2023/12/07 06:36:26;;;;;;;30.50;14.17;;;1.30;99.90;;;;;;4933204;29;20191;-65
2023/12/07 06:38:53;;;;;;;32.00;14.57;;;1.30;99.90;;;;;;4933284;29;20214;-63
2023/12/07 06:41:18;;;;;;;32.17;15.17;;;1.40;99.90;;;;;;4931946;29;20254;-64
2023/12/07 06:43:44;;;;;;;36.43;15.37;;;1.30;99.90;;;;;;4932598;29;20226;-63
2023/12/07 06:46:13;;;;;;;30.23;13.90;;;1.30;99.90;;;;;;4932732;29;20179;-64
2023/12/07 06:48:40;;;;;;;31.87;14.23;;;1.40;99.90;;;;;;4932853;29;20186;-64
2023/12/07 06:51:06;;;;;;;32.87;15.07;;;1.40;99.90;;;;;;4931389;29;20238;-63
2023/12/07 06:53:32;;;;;;;34.13;15.10;;;1.30;99.90;;;;;;4933011;29;20688;-62
2023/12/07 06:55:58;;;;;;;36.83;13.60;;;1.40;99.90;;;;;;4932984;29;20199;-64
2023/12/07 06:58:24;;;;;;;33.20;14.47;;;1.40;99.90;;;;;;4933170;29;20193;-63
2023/12/07 07:00:49;;;;;;;33.73;14.23;;;1.40;99.90;;;;;;4932581;29;20218;-64
2023/12/07 07:03:15;;;;;;;31.57;14.47;;;1.40;99.90;;;;;;4933000;29;20249;-64
2023/12/07 07:05:41;;;;;;;30.93;14.57;;;1.30;99.90;;;;;;4931786;29;20571;-64
2023/12/07 07:08:08;;;;;;;32.73;13.83;;;1.30;99.90;;;;;;4932960;29;20271;-63
2023/12/07 07:10:34;;;;;;;35.57;14.90;;;1.30;99.90;;;;;;4924633;29;20251;-64
2023/12/07 07:13:04;;;;;;;35.60;14.77;;;1.30;99.90;;;;;;4933385;29;20191;-64
2023/12/07 07:15:30;;;;;;;40.03;15.97;;;1.20;99.90;;;;;;4947414;29;20194;-65
2023/12/07 07:17:56;;;;;;;35.50;15.30;;;1.10;99.90;;;;;;4932766;29;20206;-63
2023/12/07 07:20:22;;;;;;;33.03;13.93;;;1.10;99.90;;;;;;4931663;29;20226;-64
2023/12/07 07:22:47;;;;;;;32.53;14.50;;;1.20;99.90;;;;;;4947487;29;20179;-64
2023/12/07 07:25:15;;;;;;;32.83;13.73;;;1.20;99.90;;;;;;4932747;29;20254;-64
2023/12/07 07:27:40;;;;;;;29.33;13.77;;;1.20;99.90;;;;;;4932995;29;20184;-64
2023/12/07 07:30:08;;;;;;;29.47;12.93;;;1.30;99.90;;;;;;4932443;29;20214;-64
2023/12/07 07:32:33;;;;;;;35.03;14.30;;;1.30;99.90;;;;;;4932558;29;20202;-64
2023/12/07 07:34:59;;;;;;;33.40;13.07;;;1.30;99.90;;;;;;4932795;29;20221;-64
2023/12/07 07:37:24;;;;;;;32.17;13.43;;;1.30;99.90;;;;;;4931672;29;20200;-63
2023/12/07 07:39:50;;;;;;;28.10;12.13;;;1.40;99.90;;;;;;4931851;29;20750;-63
2023/12/07 07:42:16;;;;;;;29.93;12.90;;;1.30;99.90;;;;;;4932483;29;20258;-64
2023/12/07 07:44:42;;;;;;;33.70;12.87;;;1.40;99.90;;;;;;4932804;29;20187;-64
2023/12/07 07:47:08;;;;;;;27.47;12.47;;;1.40;99.90;;;;;;4932485;29;20183;-64
2023/12/07 07:49:34;;;;;;;26.37;12.80;;;1.30;99.90;;;;;;4932035;29;20258;-63
2023/12/07 07:51:59;;;;;;;29.77;12.90;;;1.40;99.90;;;;;;4931764;29;20195;-62
2023/12/07 07:54:25;;;;;;;29.07;13.40;;;1.30;99.90;;;;;;4931106;29;20191;-63
2023/12/07 07:56:51;;;;;;;29.70;15.17;;;1.30;99.90;;;;;;4932826;29;20187;-63
2023/12/07 07:59:16;;;;;;;37.77;17.20;;;1.30;99.90;;;;;;4932820;29;20229;-64
2023/12/07 08:01:42;;;;;;;57.57;28.07;;;1.20;99.90;;;;;;4935444;29;20269;-63
2023/12/07 08:04:07;;;;;;;54.50;27.07;;;1.10;99.90;;;;;;4934948;29;20195;-63
2023/12/07 08:06:34;;;;;;;48.23;22.57;;;1.00;99.90;;;;;;4935233;29;20694;-63
2023/12/07 08:08:59;;;;;;;38.83;16.87;;;1.00;99.90;;;;;;4935858;29;20175;-63
2023/12/07 08:11:25;;;;;;;44.97;15.70;;;1.10;99.90;;;;;;4934887;29;20667;-63
2023/12/07 08:13:50;;;;;;;45.07;16.67;;;1.00;99.90;;;;;;4934992;29;20227;-63
2023/12/07 08:16:16;;;;;;;35.63;15.97;;;1.00;99.90;;;;;;4934662;29;20195;-63
2023/12/07 08:18:42;;;;;;;37.23;15.77;;;1.10;99.90;;;;;;4934931;29;20712;-64
2023/12/07 08:21:08;;;;;;;36.93;16.17;;;1.10;99.90;;;;;;4932628;29;20309;-64
2023/12/07 08:23:35;;;;;;;40.10;16.00;;;1.10;99.90;;;;;;4934507;29;20554;-63
2023/12/07 08:26:01;;;;;;;37.00;17.03;;;1.20;99.90;;;;;;4934622;29;20186;-64
2023/12/07 08:28:27;;;;;;;37.70;16.30;;;1.20;99.90;;;;;;4934501;29;20657;-65
2023/12/07 08:30:53;;;;;;;35.17;16.23;;;1.20;99.90;;;;;;4933751;29;20211;-64
2023/12/07 08:33:18;;;;;;;35.93;14.40;;;1.20;99.90;;;;;;4934408;29;20195;-63
2023/12/07 08:35:44;;;;;;;31.30;13.93;;;1.30;99.90;;;;;;4934609;29;20653;-64
2023/12/07 08:38:09;;;;;;;36.00;15.70;;;1.30;99.90;;;;;;4934349;29;20195;-63
2023/12/07 08:40:35;;;;;;;28.83;13.93;;;1.30;99.90;;;;;;4933830;29;20214;-64
2023/12/07 08:43:00;;;;;;;33.57;15.23;;;1.30;99.90;;;;;;4934351;29;20195;-63
2023/12/07 08:45:26;;;;;;;31.97;14.53;;;1.30;99.90;;;;;;4934049;29;20195;-64
2023/12/07 08:47:52;;;;;;;33.73;14.33;;;1.30;99.90;;;;;;4933085;29;20197;-64
2023/12/07 08:50:17;;;;;;;33.97;14.67;;;1.30;99.90;;;;;;4932192;29;20251;-64
2023/12/07 08:52:43;;;;;;;33.40;15.33;;;1.30;99.90;;;;;;4932892;29;20679;-64
2023/12/07 08:55:08;;;;;;;40.17;15.97;;;1.30;99.90;;;;;;4933988;29;20721;-64
2023/12/07 08:57:34;;;;;;;38.77;16.00;;;1.30;99.90;;;;;;4934093;29;20187;-64
2023/12/07 08:59:59;;;;;;;41.10;17.77;;;1.30;99.90;;;;;;4933374;29;20222;-64
2023/12/07 09:02:25;;;;;;;47.37;17.10;;;1.30;99.90;;;;;;4933919;29;20270;-63
2023/12/07 09:04:51;;;;;;;39.37;17.40;;;1.30;99.90;;;;;;4933620;29;20215;-64
2023/12/07 09:07:17;;;;;;;39.60;17.13;;;1.30;99.90;;;;;;4933443;29;20234;-64
2023/12/07 09:09:47;;;;;;;39.57;17.03;;;1.30;99.90;;;;;;4933512;29;20210;-64
2023/12/07 09:12:14;;;;;;;42.50;17.73;;;1.20;99.90;;;;;;4933667;29;20179;-64
2023/12/07 09:14:40;;;;;;;43.67;17.80;;;1.20;99.90;;;;;;4934171;29;20282;-64
2023/12/07 09:17:05;;;;;;;50.97;18.43;;;1.30;99.90;;;;;;4933642;29;20218;-64
2023/12/07 09:19:31;;;;;;;43.90;17.47;;;1.30;99.90;;;;;;4933146;29;20736;-65
2023/12/07 09:21:58;;;;;;;41.70;17.17;;;1.20;99.90;;;;;;4931693;29;20540;-64
2023/12/07 09:24:24;;;;;;;39.97;16.53;;;1.10;99.90;;;;;;4933307;29;20187;-63
2023/12/07 09:26:49;;;;;;;43.57;18.03;;;1.10;99.90;;;;;;4933477;29;20202;-64
2023/12/07 09:29:15;;;;;;;42.07;17.57;;;1.10;99.90;;;;;;4933542;29;20207;-65
2023/12/07 09:31:40;;;;;;;46.57;18.50;;;1.10;99.90;;;;;;4933764;29;20192;-66
2023/12/07 09:34:08;;;;;;;38.90;16.30;;;1.20;99.90;;;;;;4934334;29;20648;-66
2023/12/07 09:36:33;;;;;;;45.70;17.47;;;1.20;99.90;;;;;;4933868;29;20175;-66
2023/12/07 09:38:59;;;;;;;52.20;18.90;;;1.20;99.90;;;;;;4933142;29;20175;-66
2023/12/07 09:41:27;;;;;;;52.33;22.17;;;1.30;99.90;;;;;;4931958;29;20314;-65
2023/12/07 09:43:52;;;;;;;51.57;19.53;;;1.30;99.90;;;;;;4934377;29;20187;-65
2023/12/07 09:46:19;;;;;;;34.80;15.27;;;1.30;99.90;;;;;;4934441;29;20520;-65
2023/12/07 09:48:45;;;;;;;72.33;25.23;;;1.40;99.90;;;;;;4934520;29;20541;-65
2023/12/07 09:51:12;;;;;;;38.97;16.50;;;1.50;99.90;;;;;;4933604;29;20242;-65
2023/12/07 09:53:39;;;;;;;42.57;17.77;;;1.40;99.90;;;;;;4934021;29;20185;-66
2023/12/07 09:56:05;;;;;;;36.40;16.37;;;1.30;99.90;;;;;;4934239;29;20188;-65
2023/12/07 09:58:31;;;;;;;32.80;13.67;;;1.40;99.90;;;;;;4933660;29;20199;-65
2023/12/07 10:00:56;;;;;;;38.57;18.47;;;1.40;99.90;;;;;;4932833;29;20247;-64
2023/12/07 10:03:23;;;;;;;35.17;15.53;;;1.40;99.90;;;;;;4933591;29;20186;-66
2023/12/07 10:05:59;;;;;;;36.73;18.37;;;1.40;99.90;;;;;;4933727;29;20723;-65
2023/12/07 10:08:35;;;;;;;33.87;14.07;;;1.30;99.90;;;;;;4933580;29;20190;-67
2023/12/07 10:11:09;;;;;;;26.87;12.37;;;1.20;99.90;;;;;;4932976;29;20199;-67
2023/12/07 10:13:36;;;;;;;24.10;11.10;;;1.30;99.90;;;;;;4933845;29;20206;-67
2023/12/07 10:16:18;;;;;;;30.43;11.97;;;1.10;99.90;;;;;;4933372;29;20191;-68
2023/12/07 10:18:44;;;;;;;29.10;11.90;;;1.20;99.90;;;;;;4932457;29;20624;-67
2023/12/07 10:21:10;;;;;;;34.10;14.40;;;1.20;99.90;;;;;;4932731;29;20219;-65
2023/12/07 10:23:37;;;;;;;27.10;10.77;;;1.30;99.90;;;;;;4931765;29;20203;-67
2023/12/07 10:26:05;;;;;;;28.77;10.80;;;1.30;99.90;;;;;;4931885;29;20182;-66
2023/12/07 10:28:30;;;;;;;35.77;14.17;;;1.30;99.90;;;;;;4932497;29;20187;-64
2023/12/07 10:30:57;;;;;;;28.17;12.00;;;1.30;99.90;;;;;;4932320;29;20294;-67
2023/12/07 10:33:22;;;;;;;27.63;11.37;;;1.30;99.90;;;;;;4932865;29;20186;-66
2023/12/07 10:35:48;;;;;;;27.73;11.87;;;1.30;99.90;;;;;;4932502;29;20673;-67
2023/12/07 10:38:14;;;;;;;31.23;13.83;;;1.40;99.90;;;;;;4930030;29;20242;-67
2023/12/07 10:40:40;;;;;;;36.30;14.07;;;1.40;99.90;;;;;;4946752;28;20202;-67
2023/12/07 10:43:07;;;;;;;34.70;14.70;;;1.40;99.90;;;;;;4932831;29;20394;-65
2023/12/07 10:45:34;;;;;;;30.83;13.13;;;1.50;99.90;;;;;;4932844;29;20179;-66
2023/12/07 10:48:07;;;;;;;30.20;13.70;;;1.60;99.90;;;;;;4932783;29;20175;-67
2023/12/07 10:50:55;;;;;;;28.60;12.13;;;1.60;99.90;;;;;;4932373;29;20199;-65
2023/12/07 10:53:40;;;;;;;25.53;10.63;;;1.60;99.90;;;;;;4932967;29;20187;-67
2023/12/07 10:56:10;;;;;;;31.83;11.93;;;1.70;99.90;;;;;;4934137;29;20660;-65
2023/12/07 10:58:36;;;;;;;31.53;12.67;;;1.60;99.90;;;;;;4937020;29;20179;-65
2023/12/07 11:01:02;;;;;;;31.77;11.90;;;1.60;99.90;;;;;;4936146;29;20273;-65
2023/12/07 11:03:29;;;;;;;30.47;11.90;;;1.70;99.90;;;;;;4936755;29;20719;-66
2023/12/07 11:05:55;;;;;;;31.27;12.40;;;1.60;99.90;;;;;;4935021;29;20207;-65
2023/12/07 11:08:23;;;;;;;28.43;12.33;;;1.60;99.90;;;;;;4949726;29;20191;-66
2023/12/07 11:11:14;;;;;;;35.73;14.30;;;1.70;99.90;;;;;;4934454;29;20206;-65
2023/12/07 11:13:49;;;;;;;37.63;15.07;;;1.70;99.90;;;;;;4937302;29;20183;-66
2023/12/07 11:16:15;;;;;;;36.53;14.67;;;1.60;99.90;;;;;;4938627;29;20190;-66
2023/12/07 11:18:40;;;;;;;38.20;14.77;;;1.60;99.90;;;;;;4936665;29;20683;-66
2023/12/07 11:21:06;;;;;;;35.93;14.10;;;1.70;99.90;;;;;;4934774;29;20211;-65
2023/12/07 11:23:32;;;;;;;41.30;14.73;;;1.70;99.90;;;;;;4936287;29;20613;-65
2023/12/07 11:25:57;;;;;;;36.73;16.07;;;1.80;99.90;;;;;;4935959;29;20179;-66
2023/12/07 11:28:39;;;;;;;36.30;15.43;;;1.80;99.90;;;;;;4935688;29;20183;-67
2023/12/07 11:31:08;;;;;;;38.83;14.70;;;1.80;99.90;;;;;;4935120;29;20230;-66
2023/12/07 11:33:38;;;;;;;34.40;14.60;;;1.80;99.90;;;;;;4935732;29;20194;-63
2023/12/07 11:36:08;;;;;;;37.40;15.57;;;1.90;99.90;;;;;;4939486;29;20182;-66
2023/12/07 11:38:36;;;;;;;37.33;15.70;;;1.90;99.90;;;;;;4939368;29;20652;-65
2023/12/07 11:41:02;;;;;;;36.73;14.97;;;2.00;99.90;;;;;;4938327;29;20629;-66
2023/12/07 11:43:40;;;;;;;32.10;14.23;;;2.00;99.90;;;;;;4937529;29;20275;-67
2023/12/07 11:46:07;;;;;;;34.83;15.33;;;2.00;99.90;;;;;;4938639;29;20179;-64
2023/12/07 11:48:32;;;;;;;33.80;15.37;;;2.00;99.90;;;;;;4937209;29;20190;-66
2023/12/07 11:51:00;;;;;;;31.83;13.23;;;2.00;99.90;;;;;;4937189;29;20199;-66
2023/12/07 11:53:29;;;;;;;28.53;11.60;;;2.00;99.90;;;;;;4937659;29;20191;-66
2023/12/07 11:55:57;;;;;;;36.07;13.50;;;2.10;99.90;;;;;;4936509;29;20198;-65
2023/12/07 11:58:24;;;;;;;27.80;12.77;;;2.10;99.90;;;;;;4937556;29;20222;-65
2023/12/07 12:00:52;;;;;;;31.67;12.50;;;2.20;99.90;;;;;;4937367;29;20265;-65
2023/12/07 12:03:17;;;;;;;36.10;14.47;;;2.10;99.90;;;;;;4938374;29;20176;-66
2023/12/07 12:05:43;;;;;;;29.83;12.73;;;2.10;99.90;;;;;;4936297;29;20697;-62
2023/12/07 12:08:10;;;;;;;28.93;12.13;;;2.10;99.90;;;;;;4937603;29;20551;-66
2023/12/07 12:10:36;;;;;;;29.47;13.30;;;2.20;99.90;;;;;;4937079;29;20199;-66
2023/12/07 12:13:03;;;;;;;31.23;13.27;;;2.30;99.90;;;;;;4938207;29;20198;-65
2023/12/07 12:15:29;;;;;;;34.50;14.07;;;2.30;99.90;;;;;;4937861;29;20214;-67
2023/12/07 12:17:58;;;;;;;29.17;13.77;;;2.30;99.90;;;;;;4937858;29;20190;-66
2023/12/07 12:20:27;;;;;;;30.00;12.97;;;2.40;99.90;;;;;;4935806;29;20218;-67
2023/12/07 12:22:53;;;;;;;29.77;13.43;;;2.40;99.90;;;;;;4935491;29;20536;-66
2023/12/07 12:25:25;;;;;;;27.47;11.77;;;2.40;99.90;;;;;;4936661;29;20293;-65
2023/12/07 12:27:53;;;;;;;27.70;11.83;;;2.30;99.90;;;;;;4936947;29;20182;-66
2023/12/07 12:30:20;;;;;;;39.93;15.80;;;2.30;99.90;;;;;;4935792;29;20286;-66
2023/12/07 12:32:46;;;;;;;35.67;14.10;;;2.30;99.90;;;;;;4936915;29;20186;-64